sensor_id;sensor_type;location;lat;lon;timestamp;pressure;altitude;pressure_sealevel;temperature;humidity
10099;BME280;5089;42.656;23.374;2022-09-09T00:01:04;95039.31;;;21.14;63.71
10099;BME280;5089;42.656;23.374;2022-09-09T00:03:43;95034.78;;;21.18;63.32
10099;BME280;5089;42.656;23.374;2022-09-09T00:06:16;95024.19;;;21.16;63.51
10099;BME280;5089;42.656;23.374;2022-09-09T00:08:56;95028.16;;;21.19;63.25
10099;BME280;5089;42.656;23.374;2022-09-09T00:11:29;95028.84;;;21.16;63.11
10099;BME280;5089;42.656;23.374;2022-09-09T00:14:00;95033.63;;;21.19;63.15
10099;BME280;5089;42.656;23.374;2022-09-09T00:16:32;95004.16;;;21.04;63.04
10099;BME280;5089;42.656;23.374;2022-09-09T00:19:05;95031.41;;;21.21;63.35
10099;BME280;5089;42.656;23.374;2022-09-09T00:21:36;95031.25;;;21.17;63.67
10099;BME280;5089;42.656;23.374;2022-09-09T00:24:11;94971.09;;;20.76;63.88
10099;BME280;5089;42.656;23.374;2022-09-09T00:26:44;95011.38;;;21.08;64.00
10099;BME280;5089;42.656;23.374;2022-09-09T00:29:20;94998.44;;;20.97;63.86
10099;BME280;5089;42.656;23.374;2022-09-09T00:31:54;95004.63;;;21.06;63.81
10099;BME280;5089;42.656;23.374;2022-09-09T00:34:29;95004.16;;;21.04;63.95
10099;BME280;5089;42.656;23.374;2022-09-09T00:36:58;95005.31;;;21.03;64.18
10099;BME280;5089;42.656;23.374;2022-09-09T00:39:32;95002.56;;;21.03;64.08
10099;BME280;5089;42.656;23.374;2022-09-09T00:42:13;94998.69;;;21.04;63.88
10099;BME280;5089;42.656;23.374;2022-09-09T00:44:52;94984.03;;;20.88;64.13
10099;BME280;5089;42.656;23.374;2022-09-09T00:47:40;94968.19;;;20.81;63.97
10099;BME280;5089;42.656;23.374;2022-09-09T00:50:37;94973.16;;;20.79;63.84
10099;BME280;5089;42.656;23.374;2022-09-09T00:53:18;94902.22;;;20.29;63.61
10099;BME280;5089;42.656;23.374;2022-09-09T00:55:56;94991.09;;;20.68;63.96
10099;BME280;5089;42.656;23.374;2022-09-09T00:58:25;94963.16;;;20.42;63.82
10099;BME280;5089;42.656;23.374;2022-09-09T01:00:57;94966.94;;;20.49;63.77
10099;BME280;5089;42.656;23.374;2022-09-09T01:03:34;94962.16;;;20.46;63.52
10099;BME280;5089;42.656;23.374;2022-09-09T01:06:11;94986.16;;;20.61;63.54
10099;BME280;5089;42.656;23.374;2022-09-09T01:09:03;94983.91;;;20.63;63.36
10099;BME280;5089;42.656;23.374;2022-09-09T01:11:38;94985.47;;;20.64;63.21
10099;BME280;5089;42.656;23.374;2022-09-09T01:14:14;94988.41;;;20.59;63.49
10099;BME280;5089;42.656;23.374;2022-09-09T01:16:45;94995.16;;;20.62;63.20
10099;BME280;5089;42.656;23.374;2022-09-09T01:19:19;94968.56;;;20.50;62.99
10099;BME280;5089;42.656;23.374;2022-09-09T01:21:55;94942.19;;;20.34;63.03
10099;BME280;5089;42.656;23.374;2022-09-09T01:24:27;94998.69;;;20.62;62.90
10099;BME280;5089;42.656;23.374;2022-09-09T01:27:01;94982.63;;;20.61;62.83
10099;BME280;5089;42.656;23.374;2022-09-09T01:29:29;94998.03;;;20.65;62.87
10099;BME280;5089;42.656;23.374;2022-09-09T01:31:58;94980.50;;;20.66;62.84
10099;BME280;5089;42.656;23.374;2022-09-09T01:34:33;94984.34;;;20.65;62.51
10099;BME280;5089;42.656;23.374;2022-09-09T01:37:04;94977.94;;;20.61;62.51
10099;BME280;5089;42.656;23.374;2022-09-09T01:39:33;94980.88;;;20.56;62.53
10099;BME280;5089;42.656;23.374;2022-09-09T01:42:04;94980.22;;;20.59;62.64
10099;BME280;5089;42.656;23.374;2022-09-09T01:44:31;95006.59;;;20.76;62.65
10099;BME280;5089;42.656;23.374;2022-09-09T01:46:58;94976.81;;;20.42;62.98
10099;BME280;5089;42.656;23.374;2022-09-09T01:49:25;95006.88;;;20.62;63.23
10099;BME280;5089;42.656;23.374;2022-09-09T01:51:54;94991.22;;;20.51;63.62
10099;BME280;5089;42.656;23.374;2022-09-09T01:54:23;95010.47;;;20.54;64.02
10099;BME280;5089;42.656;23.374;2022-09-09T01:57:00;95018.50;;;20.51;64.27
10099;BME280;5089;42.656;23.374;2022-09-09T01:59:52;95016.00;;;20.46;64.53
10099;BME280;5089;42.656;23.374;2022-09-09T02:02:26;95016.75;;;20.46;64.58
10099;BME280;5089;42.656;23.374;2022-09-09T02:05:03;94958.19;;;20.06;64.85
10099;BME280;5089;42.656;23.374;2022-09-09T02:07:38;95012.63;;;20.40;65.04
10099;BME280;5089;42.656;23.374;2022-09-09T02:10:10;95007.50;;;20.39;65.14
10099;BME280;5089;42.656;23.374;2022-09-09T02:12:41;94955.47;;;20.06;65.30
10099;BME280;5089;42.656;23.374;2022-09-09T02:15:19;94964.94;;;20.08;65.23
10099;BME280;5089;42.656;23.374;2022-09-09T02:17:49;94978.22;;;20.18;65.54
10099;BME280;5089;42.656;23.374;2022-09-09T02:20:19;94951.34;;;20.00;65.88
10099;BME280;5089;42.656;23.374;2022-09-09T02:22:49;94974.19;;;20.16;65.79
10099;BME280;5089;42.656;23.374;2022-09-09T02:25:20;94958.06;;;20.02;65.63
10099;BME280;5089;42.656;23.374;2022-09-09T02:27:50;94973.25;;;20.12;65.57
10099;BME280;5089;42.656;23.374;2022-09-09T02:30:19;94985.63;;;20.09;65.97
10099;BME280;5089;42.656;23.374;2022-09-09T02:32:48;94989.13;;;20.10;66.06
10099;BME280;5089;42.656;23.374;2022-09-09T02:35:19;94985.09;;;20.16;65.96
10099;BME280;5089;42.656;23.374;2022-09-09T02:37:50;94991.50;;;20.20;65.76
10099;BME280;5089;42.656;23.374;2022-09-09T02:40:18;94993.13;;;20.21;65.80
10099;BME280;5089;42.656;23.374;2022-09-09T02:42:48;95001.47;;;20.16;65.76
10099;BME280;5089;42.656;23.374;2022-09-09T02:45:20;94998.78;;;20.07;66.21
10099;BME280;5089;42.656;23.374;2022-09-09T02:47:55;94970.38;;;19.79;66.80
10099;BME280;5089;42.656;23.374;2022-09-09T02:50:29;95009.94;;;19.94;67.17
10099;BME280;5089;42.656;23.374;2022-09-09T02:53:07;95019.25;;;19.93;67.63
10099;BME280;5089;42.656;23.374;2022-09-09T02:55:39;95014.44;;;19.90;67.98
10099;BME280;5089;42.656;23.374;2022-09-09T02:58:10;95005.78;;;19.88;68.26
10099;BME280;5089;42.656;23.374;2022-09-09T03:00:39;95007.75;;;19.79;69.21
10099;BME280;5089;42.656;23.374;2022-09-09T03:03:07;95002.13;;;19.75;69.43
10099;BME280;5089;42.656;23.374;2022-09-09T03:05:35;94864.31;;;18.85;69.69
10099;BME280;5089;42.656;23.374;2022-09-09T03:08:02;95011.59;;;19.78;69.63
10099;BME280;5089;42.656;23.374;2022-09-09T03:10:30;95013.03;;;19.75;69.63
10099;BME280;5089;42.656;23.374;2022-09-09T03:12:57;94987.56;;;19.62;69.56
10099;BME280;5089;42.656;23.374;2022-09-09T03:15:27;94972.69;;;19.51;69.73
10099;BME280;5089;42.656;23.374;2022-09-09T03:17:58;94989.19;;;19.63;69.87
10099;BME280;5089;42.656;23.374;2022-09-09T03:20:26;95015.59;;;19.80;69.80
10099;BME280;5089;42.656;23.374;2022-09-09T03:22:53;94951.22;;;19.41;69.52
10099;BME280;5089;42.656;23.374;2022-09-09T03:25:21;95003.63;;;19.64;69.72
10099;BME280;5089;42.656;23.374;2022-09-09T03:27:49;95007.44;;;19.71;70.02
10099;BME280;5089;42.656;23.374;2022-09-09T03:30:18;94986.66;;;19.41;70.01
10099;BME280;5089;42.656;23.374;2022-09-09T03:32:45;94997.50;;;19.58;70.50
10099;BME280;5089;42.656;23.374;2022-09-09T03:35:13;95023.19;;;19.66;70.57
10099;BME280;5089;42.656;23.374;2022-09-09T03:37:43;95008.44;;;19.67;70.94
10099;BME280;5089;42.656;23.374;2022-09-09T03:40:11;94996.59;;;19.54;71.21
10099;BME280;5089;42.656;23.374;2022-09-09T03:42:38;95007.94;;;19.65;70.95
10099;BME280;5089;42.656;23.374;2022-09-09T03:45:07;95011.00;;;19.63;71.18
10099;BME280;5089;42.656;23.374;2022-09-09T03:47:36;94928.97;;;19.13;71.34
10099;BME280;5089;42.656;23.374;2022-09-09T03:50:04;94965.47;;;19.38;71.29
10099;BME280;5089;42.656;23.374;2022-09-09T03:52:35;95005.53;;;19.63;71.53
10099;BME280;5089;42.656;23.374;2022-09-09T03:55:03;95011.81;;;19.64;71.54
10099;BME280;5089;42.656;23.374;2022-09-09T03:57:30;95012.56;;;19.64;71.68
10099;BME280;5089;42.656;23.374;2022-09-09T03:59:57;95020.28;;;19.62;71.75
10099;BME280;5089;42.656;23.374;2022-09-09T04:02:26;95020.75;;;19.64;71.68
10099;BME280;5089;42.656;23.374;2022-09-09T04:04:53;95005.56;;;19.55;71.69
10099;BME280;5089;42.656;23.374;2022-09-09T04:07:20;95009.06;;;19.55;71.67
10099;BME280;5089;42.656;23.374;2022-09-09T04:09:48;95021.09;;;19.63;71.90
10099;BME280;5089;42.656;23.374;2022-09-09T04:12:15;95021.41;;;19.61;71.67
10099;BME280;5089;42.656;23.374;2022-09-09T04:14:42;94986.47;;;19.38;71.70
10099;BME280;5089;42.656;23.374;2022-09-09T04:17:08;94996.91;;;19.53;71.63
10099;BME280;5089;42.656;23.374;2022-09-09T04:19:35;95026.56;;;19.63;71.92
10099;BME280;5089;42.656;23.374;2022-09-09T04:22:03;95011.00;;;19.63;71.75
10099;BME280;5089;42.656;23.374;2022-09-09T04:24:30;95018.38;;;19.63;71.89
10099;BME280;5089;42.656;23.374;2022-09-09T04:26:58;94977.19;;;19.39;71.93
10099;BME280;5089;42.656;23.374;2022-09-09T04:29:24;95001.41;;;19.49;72.17
10099;BME280;5089;42.656;23.374;2022-09-09T04:31:51;95013.53;;;19.68;72.28
10099;BME280;5089;42.656;23.374;2022-09-09T04:34:18;95011.28;;;19.70;72.06
10099;BME280;5089;42.656;23.374;2022-09-09T04:36:45;95014.50;;;19.73;71.97
10099;BME280;5089;42.656;23.374;2022-09-09T04:39:12;95016.56;;;19.76;72.24
10099;BME280;5089;42.656;23.374;2022-09-09T04:41:39;95027.63;;;19.79;71.95
10099;BME280;5089;42.656;23.374;2022-09-09T04:44:08;95026.19;;;19.82;71.83
10099;BME280;5089;42.656;23.374;2022-09-09T04:46:35;94999.28;;;19.63;71.94
10099;BME280;5089;42.656;23.374;2022-09-09T04:49:02;95033.72;;;19.85;71.72
10099;BME280;5089;42.656;23.374;2022-09-09T04:51:29;95032.91;;;19.84;71.75
10099;BME280;5089;42.656;23.374;2022-09-09T04:53:56;94963.69;;;19.59;72.00
10099;BME280;5089;42.656;23.374;2022-09-09T04:56:23;95008.66;;;19.83;71.77
10099;BME280;5089;42.656;23.374;2022-09-09T04:58:52;94944.00;;;19.45;72.02
10099;BME280;5089;42.656;23.374;2022-09-09T05:01:21;94997.25;;;19.89;72.08
10099;BME280;5089;42.656;23.374;2022-09-09T05:03:49;94996.44;;;19.89;69.55
10099;BME280;5089;42.656;23.374;2022-09-09T05:06:18;95005.63;;;19.84;68.37
10099;BME280;5089;42.656;23.374;2022-09-09T05:08:47;95007.22;;;19.94;69.09
10099;BME280;5089;42.656;23.374;2022-09-09T05:11:16;94993.06;;;20.00;68.23
10099;BME280;5089;42.656;23.374;2022-09-09T05:13:43;94976.41;;;19.93;67.78
10099;BME280;5089;42.656;23.374;2022-09-09T05:16:10;94979.03;;;20.10;66.75
10099;BME280;5089;42.656;23.374;2022-09-09T05:18:39;95000.16;;;20.22;66.40
10099;BME280;5089;42.656;23.374;2022-09-09T05:21:07;95000.66;;;20.24;66.33
10099;BME280;5089;42.656;23.374;2022-09-09T05:23:34;95005.13;;;20.29;66.30
10099;BME280;5089;42.656;23.374;2022-09-09T05:26:02;94959.13;;;20.10;65.56
10099;BME280;5089;42.656;23.374;2022-09-09T05:28:29;94990.13;;;20.43;66.03
10099;BME280;5089;42.656;23.374;2022-09-09T05:30:57;94951.34;;;20.29;65.39
10099;BME280;5089;42.656;23.374;2022-09-09T05:33:24;94996.41;;;20.64;64.53
10099;BME280;5089;42.656;23.374;2022-09-09T05:35:57;94992.16;;;20.75;64.29
10099;BME280;5089;42.656;23.374;2022-09-09T05:38:24;94976.69;;;20.79;64.25
10099;BME280;5089;42.656;23.374;2022-09-09T05:40:51;94988.28;;;20.97;63.68
10099;BME280;5089;42.656;23.374;2022-09-09T05:43:18;94994.16;;;21.08;63.97
10099;BME280;5089;42.656;23.374;2022-09-09T05:45:45;94990.56;;;21.16;63.57
10099;BME280;5089;42.656;23.374;2022-09-09T05:48:13;94998.81;;;21.28;62.97
10099;BME280;5089;42.656;23.374;2022-09-09T05:50:40;95000.69;;;21.36;62.07
10099;BME280;5089;42.656;23.374;2022-09-09T05:53:09;94932.19;;;21.00;61.16
10099;BME280;5089;42.656;23.374;2022-09-09T05:55:36;94993.94;;;21.54;59.79
10099;BME280;5089;42.656;23.374;2022-09-09T05:58:03;94958.53;;;21.37;59.46
10099;BME280;5089;42.656;23.374;2022-09-09T06:00:30;94997.28;;;21.72;59.42
10099;BME280;5089;42.656;23.374;2022-09-09T06:02:57;94998.31;;;21.79;59.10
10099;BME280;5089;42.656;23.374;2022-09-09T06:05:24;94996.03;;;21.81;58.85
10099;BME280;5089;42.656;23.374;2022-09-09T06:07:54;94980.47;;;21.61;58.50
10099;BME280;5089;42.656;23.374;2022-09-09T06:10:22;95018.19;;;21.88;58.87
10099;BME280;5089;42.656;23.374;2022-09-09T06:12:52;95018.88;;;21.98;58.99
10099;BME280;5089;42.656;23.374;2022-09-09T06:15:19;95014.66;;;22.00;58.75
10099;BME280;5089;42.656;23.374;2022-09-09T06:17:45;95002.72;;;22.05;58.49
10099;BME280;5089;42.656;23.374;2022-09-09T06:20:12;95011.75;;;22.17;58.11
10099;BME280;5089;42.656;23.374;2022-09-09T06:22:39;95007.06;;;22.30;57.98
10099;BME280;5089;42.656;23.374;2022-09-09T06:25:08;95007.41;;;22.40;57.42
10099;BME280;5089;42.656;23.374;2022-09-09T06:27:36;95007.75;;;22.51;56.77
10099;BME280;5089;42.656;23.374;2022-09-09T06:30:03;95019.84;;;22.62;56.54
10099;BME280;5089;42.656;23.374;2022-09-09T06:32:30;95022.59;;;22.74;56.09
10099;BME280;5089;42.656;23.374;2022-09-09T06:35:00;95009.31;;;22.88;55.52
10099;BME280;5089;42.656;23.374;2022-09-09T06:37:27;95003.81;;;23.01;54.79
10099;BME280;5089;42.656;23.374;2022-09-09T06:39:54;95001.16;;;23.16;54.07
10099;BME280;5089;42.656;23.374;2022-09-09T06:42:21;94994.81;;;23.28;54.10
10099;BME280;5089;42.656;23.374;2022-09-09T06:44:49;94998.34;;;23.40;53.51
10099;BME280;5089;42.656;23.374;2022-09-09T06:47:17;94987.00;;;23.42;52.28
10099;BME280;5089;42.656;23.374;2022-09-09T06:49:44;95004.56;;;23.53;50.97
10099;BME280;5089;42.656;23.374;2022-09-09T06:52:11;95000.66;;;23.54;51.74
10099;BME280;5089;42.656;23.374;2022-09-09T06:54:38;94984.03;;;23.47;51.43
10099;BME280;5089;42.656;23.374;2022-09-09T06:57:05;95011.53;;;23.78;50.43
10099;BME280;5089;42.656;23.374;2022-09-09T06:59:33;95012.63;;;23.89;50.47
10099;BME280;5089;42.656;23.374;2022-09-09T07:02:01;95014.41;;;23.97;49.89
10099;BME280;5089;42.656;23.374;2022-09-09T07:04:28;95031.88;;;24.05;49.37
10099;BME280;5089;42.656;23.374;2022-09-09T07:06:55;95025.78;;;24.12;49.12
10099;BME280;5089;42.656;23.374;2022-09-09T07:09:22;95018.22;;;24.09;49.16
10099;BME280;5089;42.656;23.374;2022-09-09T07:11:50;95021.97;;;24.16;48.85
10099;BME280;5089;42.656;23.374;2022-09-09T07:14:18;95014.25;;;24.22;48.75
10099;BME280;5089;42.656;23.374;2022-09-09T07:16:46;95012.84;;;24.28;48.50
10099;BME280;5089;42.656;23.374;2022-09-09T07:19:15;95011.25;;;24.27;46.79
10099;BME280;5089;42.656;23.374;2022-09-09T07:21:42;95003.38;;;24.25;47.39
10099;BME280;5089;42.656;23.374;2022-09-09T07:24:09;95012.13;;;24.31;47.83
10099;BME280;5089;42.656;23.374;2022-09-09T07:26:37;95014.09;;;24.46;47.61
10099;BME280;5089;42.656;23.374;2022-09-09T07:29:04;95008.31;;;24.51;46.88
10099;BME280;5089;42.656;23.374;2022-09-09T07:31:33;95004.22;;;24.61;46.71
10099;BME280;5089;42.656;23.374;2022-09-09T07:34:00;95010.22;;;24.66;46.67
10099;BME280;5089;42.656;23.374;2022-09-09T07:36:30;94999.84;;;24.75;46.44
10099;BME280;5089;42.656;23.374;2022-09-09T07:38:59;94999.31;;;24.85;45.89
10099;BME280;5089;42.656;23.374;2022-09-09T07:41:29;94966.84;;;24.75;46.01
10099;BME280;5089;42.656;23.374;2022-09-09T07:43:58;95001.41;;;25.07;45.20
10099;BME280;5089;42.656;23.374;2022-09-09T07:46:26;95005.47;;;25.14;44.65
10099;BME280;5089;42.656;23.374;2022-09-09T07:48:54;95011.81;;;25.18;44.21
10099;BME280;5089;42.656;23.374;2022-09-09T07:51:23;94999.25;;;25.17;44.37
10099;BME280;5089;42.656;23.374;2022-09-09T07:53:55;95008.16;;;25.29;44.91
10099;BME280;5089;42.656;23.374;2022-09-09T07:56:24;95013.22;;;25.46;44.21
10099;BME280;5089;42.656;23.374;2022-09-09T07:58:53;95012.00;;;25.63;43.39
10099;BME280;5089;42.656;23.374;2022-09-09T08:01:23;95008.97;;;25.68;43.46
10099;BME280;5089;42.656;23.374;2022-09-09T08:03:53;94983.00;;;25.69;43.61
10099;BME280;5089;42.656;23.374;2022-09-09T08:06:21;95008.75;;;25.99;42.28
10099;BME280;5089;42.656;23.374;2022-09-09T08:08:52;94977.09;;;25.90;42.71
10099;BME280;5089;42.656;23.374;2022-09-09T08:11:21;95004.59;;;26.09;41.90
10099;BME280;5089;42.656;23.374;2022-09-09T08:13:50;95009.03;;;26.13;42.46
10099;BME280;5089;42.656;23.374;2022-09-09T08:16:19;95004.25;;;26.10;41.94
10099;BME280;5089;42.656;23.374;2022-09-09T08:18:47;94995.44;;;26.01;41.50
10099;BME280;5089;42.656;23.374;2022-09-09T08:21:17;95004.69;;;26.12;42.24
10099;BME280;5089;42.656;23.374;2022-09-09T08:23:45;94980.19;;;26.07;41.67
10099;BME280;5089;42.656;23.374;2022-09-09T08:26:15;94967.16;;;26.04;41.83
10099;BME280;5089;42.656;23.374;2022-09-09T08:28:43;94984.97;;;26.33;41.98
10099;BME280;5089;42.656;23.374;2022-09-09T08:31:12;94998.63;;;26.49;41.12
10099;BME280;5089;42.656;23.374;2022-09-09T08:33:39;94997.81;;;26.48;40.99
10099;BME280;5089;42.656;23.374;2022-09-09T08:36:10;94983.75;;;26.31;41.29
10099;BME280;5089;42.656;23.374;2022-09-09T08:38:37;95001.16;;;26.35;41.67
10099;BME280;5089;42.656;23.374;2022-09-09T08:44:01;94994.41;;;26.32;41.67
10099;BME280;5089;42.656;23.374;2022-09-09T08:46:36;95002.19;;;26.27;41.96
10099;BME280;5089;42.656;23.374;2022-09-09T08:49:15;94994.38;;;26.29;42.30
10099;BME280;5089;42.656;23.374;2022-09-09T08:51:44;94993.63;;;26.32;42.42
10099;BME280;5089;42.656;23.374;2022-09-09T08:54:11;94994.84;;;26.34;41.72
10099;BME280;5089;42.656;23.374;2022-09-09T08:56:37;94954.94;;;26.05;42.04
10099;BME280;5089;42.656;23.374;2022-09-09T08:59:09;94983.56;;;26.43;42.22
10099;BME280;5089;42.656;23.374;2022-09-09T09:01:44;94983.44;;;26.36;41.69
10099;BME280;5089;42.656;23.374;2022-09-09T09:04:29;94972.88;;;26.38;41.53
10099;BME280;5089;42.656;23.374;2022-09-09T09:07:06;94988.03;;;26.51;41.59
10099;BME280;5089;42.656;23.374;2022-09-09T09:09:42;94985.25;;;26.51;41.17
10099;BME280;5089;42.656;23.374;2022-09-09T09:12:15;94987.53;;;26.45;41.41
10099;BME280;5089;42.656;23.374;2022-09-09T09:14:46;94980.50;;;26.48;41.82
10099;BME280;5089;42.656;23.374;2022-09-09T09:17:16;94870.41;;;25.83;41.53
10099;BME280;5089;42.656;23.374;2022-09-09T09:19:46;94990.63;;;26.89;41.17
10099;BME280;5089;42.656;23.374;2022-09-09T09:22:18;94983.41;;;27.11;41.04
10099;BME280;5089;42.656;23.374;2022-09-09T09:24:52;94978.00;;;27.18;40.33
10099;BME280;5089;42.656;23.374;2022-09-09T09:27:29;94959.34;;;27.08;40.56
10099;BME280;5089;42.656;23.374;2022-09-09T09:30:01;94963.41;;;27.17;40.54
10099;BME280;5089;42.656;23.374;2022-09-09T09:32:32;94973.00;;;27.27;40.39
10099;BME280;5089;42.656;23.374;2022-09-09T09:35:02;94981.66;;;27.25;39.88
10099;BME280;5089;42.656;23.374;2022-09-09T09:37:34;94955.47;;;27.12;40.54
10099;BME280;5089;42.656;23.374;2022-09-09T09:40:08;94977.72;;;27.26;41.03
10099;BME280;5089;42.656;23.374;2022-09-09T09:42:36;94978.47;;;27.23;41.10
10099;BME280;5089;42.656;23.374;2022-09-09T09:45:17;94977.06;;;27.37;41.16
10099;BME280;5089;42.656;23.374;2022-09-09T09:47:58;94967.91;;;27.59;40.34
10099;BME280;5089;42.656;23.374;2022-09-09T09:50:24;94959.84;;;27.80;39.24
10099;BME280;5089;42.656;23.374;2022-09-09T09:52:55;94951.63;;;27.87;39.07
10099;BME280;5089;42.656;23.374;2022-09-09T09:55:23;94950.50;;;27.92;39.37
10099;BME280;5089;42.656;23.374;2022-09-09T09:57:51;94936.59;;;27.85;39.41
10099;BME280;5089;42.656;23.374;2022-09-09T10:00:21;94945.34;;;27.90;39.17
10099;BME280;5089;42.656;23.374;2022-09-09T10:02:50;94941.75;;;27.86;39.58
10099;BME280;5089;42.656;23.374;2022-09-09T10:05:20;94944.56;;;27.93;40.06
10099;BME280;5089;42.656;23.374;2022-09-09T10:07:57;94903.38;;;27.74;39.95
10099;BME280;5089;42.656;23.374;2022-09-09T10:10:37;94951.03;;;28.04;39.86
10099;BME280;5089;42.656;23.374;2022-09-09T10:13:11;94958.63;;;28.14;39.78
10099;BME280;5089;42.656;23.374;2022-09-09T10:15:48;94959.41;;;28.15;39.41
10099;BME280;5089;42.656;23.374;2022-09-09T10:18:30;94922.41;;;27.86;38.95
10099;BME280;5089;42.656;23.374;2022-09-09T10:21:10;94957.31;;;28.01;38.91
10099;BME280;5089;42.656;23.374;2022-09-09T10:23:55;94968.19;;;27.87;39.51
10099;BME280;5089;42.656;23.374;2022-09-09T10:26:35;94964.13;;;27.77;40.49
10099;BME280;5089;42.656;23.374;2022-09-09T10:29:15;94968.41;;;27.68;43.59
10099;BME280;5089;42.656;23.374;2022-09-09T10:31:54;94962.44;;;27.66;41.49
10099;BME280;5089;42.656;23.374;2022-09-09T10:34:43;94967.91;;;27.59;42.63
10099;BME280;5089;42.656;23.374;2022-09-09T10:37:26;94972.50;;;27.48;43.23
10099;BME280;5089;42.656;23.374;2022-09-09T10:40:02;94966.88;;;27.41;44.20
10099;BME280;5089;42.656;23.374;2022-09-09T10:42:31;94940.56;;;27.20;43.88
10099;BME280;5089;42.656;23.374;2022-09-09T10:45:08;94959.59;;;27.25;43.81
10099;BME280;5089;42.656;23.374;2022-09-09T10:47:57;94971.69;;;27.17;45.26
10099;BME280;5089;42.656;23.374;2022-09-09T10:50:40;94974.03;;;27.15;43.58
10099;BME280;5089;42.656;23.374;2022-09-09T10:53:17;94976.75;;;27.12;42.89
10099;BME280;5089;42.656;23.374;2022-09-09T10:55:51;94949.31;;;26.96;43.88
10099;BME280;5089;42.656;23.374;2022-09-09T10:58:23;94963.22;;;27.03;44.12
10099;BME280;5089;42.656;23.374;2022-09-09T11:00:54;94943.25;;;26.84;43.95
10099;BME280;5089;42.656;23.374;2022-09-09T11:03:26;94971.84;;;26.98;43.60
10099;BME280;5089;42.656;23.374;2022-09-09T11:06:01;94967.06;;;26.95;44.38
10099;BME280;5089;42.656;23.374;2022-09-09T11:08:31;94903.31;;;26.48;46.80
10099;BME280;5089;42.656;23.374;2022-09-09T11:11:02;94961.44;;;26.88;44.58
10099;BME280;5089;42.656;23.374;2022-09-09T11:13:35;94970.88;;;26.87;45.01
10099;BME280;5089;42.656;23.374;2022-09-09T11:16:09;94949.22;;;26.63;45.01
10099;BME280;5089;42.656;23.374;2022-09-09T11:18:42;94973.72;;;26.68;46.70
10099;BME280;5089;42.656;23.374;2022-09-09T11:21:17;94962.25;;;26.66;46.98
10099;BME280;5089;42.656;23.374;2022-09-09T11:23:49;94954.84;;;26.70;45.13
10099;BME280;5089;42.656;23.374;2022-09-09T11:26:23;94950.06;;;26.67;45.14
10099;BME280;5089;42.656;23.374;2022-09-09T11:29:03;94948.59;;;26.73;44.79
10099;BME280;5089;42.656;23.374;2022-09-09T11:31:44;94944.78;;;26.81;44.68
10099;BME280;5089;42.656;23.374;2022-09-09T11:34:42;94948.00;;;26.87;44.26
10099;BME280;5089;42.656;23.374;2022-09-09T11:40:19;94918.38;;;26.80;44.29
10099;BME280;5089;42.656;23.374;2022-09-09T11:42:46;94916.09;;;26.86;44.16
10099;BME280;5089;42.656;23.374;2022-09-09T11:45:24;94883.91;;;26.67;44.46
10099;BME280;5089;42.656;23.374;2022-09-09T11:47:54;94914.13;;;26.86;44.08
10099;BME280;5089;42.656;23.374;2022-09-09T11:50:37;94882.75;;;26.68;44.36
10099;BME280;5089;42.656;23.374;2022-09-09T11:53:18;94891.22;;;26.82;44.77
10099;BME280;5089;42.656;23.374;2022-09-09T11:55:59;94860.34;;;26.73;44.86
10099;BME280;5089;42.656;23.374;2022-09-09T11:58:27;94877.84;;;26.84;44.63
10099;BME280;5089;42.656;23.374;2022-09-09T12:00:58;94869.88;;;26.79;44.50
10099;BME280;5089;42.656;23.374;2022-09-09T12:03:40;94887.44;;;26.94;44.26
10099;BME280;5089;42.656;23.374;2022-09-09T12:06:15;94897.34;;;26.98;44.16
10099;BME280;5089;42.656;23.374;2022-09-09T12:08:47;94882.72;;;26.94;44.14
10099;BME280;5089;42.656;23.374;2022-09-09T12:11:24;94891.50;;;27.03;44.15
10099;BME280;5089;42.656;23.374;2022-09-09T12:13:53;94880.06;;;27.01;44.72
10099;BME280;5089;42.656;23.374;2022-09-09T12:16:29;94882.06;;;27.04;44.44
10099;BME280;5089;42.656;23.374;2022-09-09T12:19:06;94842.75;;;26.81;44.52
10099;BME280;5089;42.656;23.374;2022-09-09T12:21:45;94857.53;;;26.99;44.52
10099;BME280;5089;42.656;23.374;2022-09-09T12:24:21;94864.06;;;27.17;44.51
10099;BME280;5089;42.656;23.374;2022-09-09T12:26:57;94873.09;;;27.14;44.04
10099;BME280;5089;42.656;23.374;2022-09-09T12:29:31;94864.00;;;27.10;44.58
10099;BME280;5089;42.656;23.374;2022-09-09T12:32:06;94870.69;;;27.09;44.83
10099;BME280;5089;42.656;23.374;2022-09-09T12:34:39;94860.84;;;27.12;44.55
10099;BME280;5089;42.656;23.374;2022-09-09T12:37:18;94849.50;;;27.20;44.55
10099;BME280;5089;42.656;23.374;2022-09-09T12:39:51;94850.84;;;27.34;44.38
10099;BME280;5089;42.656;23.374;2022-09-09T12:42:21;94814.06;;;27.22;44.13
10099;BME280;5089;42.656;23.374;2022-09-09T12:44:56;94843.81;;;27.40;44.43
10099;BME280;5089;42.656;23.374;2022-09-09T12:47:27;94841.53;;;27.45;45.09
10099;BME280;5089;42.656;23.374;2022-09-09T12:49:57;94793.06;;;27.14;44.93
10099;BME280;5089;42.656;23.374;2022-09-09T12:52:30;94831.94;;;27.36;44.84
10099;BME280;5089;42.656;23.374;2022-09-09T12:54:59;94844.69;;;27.47;44.84
10099;BME280;5089;42.656;23.374;2022-09-09T12:57:32;94836.84;;;27.49;45.04
10099;BME280;5089;42.656;23.374;2022-09-09T13:00:11;94813.84;;;27.42;43.89
10099;BME280;5089;42.656;23.374;2022-09-09T13:02:46;94832.13;;;27.50;43.39
10099;BME280;5089;42.656;23.374;2022-09-09T13:05:17;94825.84;;;27.53;43.36
10099;BME280;5089;42.656;23.374;2022-09-09T13:07:46;94819.56;;;27.59;43.54
10099;BME280;5089;42.656;23.374;2022-09-09T13:10:15;94819.59;;;27.63;43.86
10099;BME280;5089;42.656;23.374;2022-09-09T13:12:46;94816.50;;;27.68;43.62
10099;BME280;5089;42.656;23.374;2022-09-09T13:15:21;94814.97;;;27.74;44.15
10099;BME280;5089;42.656;23.374;2022-09-09T13:17:53;94808.25;;;27.75;43.97
10099;BME280;5089;42.656;23.374;2022-09-09T13:20:21;94807.06;;;27.72;43.55
10099;BME280;5089;42.656;23.374;2022-09-09T13:22:52;94776.91;;;27.50;44.08
10099;BME280;5089;42.656;23.374;2022-09-09T13:25:23;94805.47;;;27.71;44.32
10099;BME280;5089;42.656;23.374;2022-09-09T13:27:58;94820.50;;;27.74;44.51